Time,TemperatureF,DewpointF,PressureIn,WindDirection,WindDirectionDegrees,WindSpeedMPH,WindSpeedGustMPH,Humidity,HourlyPrecipIn,Conditions,Clouds,dailyrainin,SoftwareType,DateUTC
2013-11-21 00:02:00,33.4,27.0,29.08,SE,135,6.9,6.9,77,0.00,RA,,0.00,WeatherDisplay:10.37,2013-11-21 06:02:00,
2013-11-21 00:07:00,33.4,26.7,29.08,South,180,8.1,8.1,76,0.00,RA,,0.00,WeatherDisplay:10.37,2013-11-21 06:07:00,
2013-11-21 00:12:00,33.6,26.5,29.09,SSE,158,6.9,6.9,75,0.00,CLR,,0.00,WeatherDisplay:10.37,2013-11-21 06:12:00,
2013-11-21 00:17:00,33.4,26.4,29.09,South,180,8.1,8.1,75,0.00,CLR,,0.00,WeatherDisplay:10.37,2013-11-21 06:17:00,
2013-11-21 00:22:00,33.6,26.9,29.09,SSE,158,6.9,6.9,76,0.00,CLR,,0.00,WeatherDisplay:10.37,2013-11-21 06:22:00,
2013-11-21 00:27:00,33.6,26.5,29.09,South,180,5.8,5.8,75,0.00,CLR,,0.00,WeatherDisplay:10.37,2013-11-21 06:27:00,
2013-11-21 00:32:00,33.6,26.9,29.08,South,180,5.8,5.8,76,0.00,CLR,,0.00,WeatherDisplay:10.37,2013-11-21 06:32:00,
2013-11-21 00:37:00,33.4,26.4,29.09,South,180,3.5,3.8,75,0.00,CLR,,0.00,WeatherDisplay:10.37,2013-11-21 06:37:00,
2013-11-21 00:42:00,33.4,26.4,29.09,SSE,158,5.8,5.8,75,0.00,CLR,,0.00,WeatherDisplay:10.37,2013-11-21 06:42:00,
2013-11-21 00:47:00,33.4,26.0,29.09,South,180,4.6,4.6,74,0.00,CLR,,0.00,WeatherDisplay:10.37,2013-11-21 06:47:00,
2013-11-21 00:52:00,33.4,26.0,29.08,South,180,4.6,4.6,74,0.00,CLR,,0.00,WeatherDisplay:10.37,2013-11-21 06:52:00,
2013-11-21 00:57:00,33.4,25.0,29.09,South,180,5.8,5.8,71,0.00,CLR,,0.00,WeatherDisplay:10.37,2013-11-21 06:57:00,
2013-11-21 01:02:00,33.4,25.0,29.08,South,180,5.8,5.8,71,0.00,CLR,,0.00,WeatherDisplay:10.37,2013-11-21 07:02:00,
2013-11-21 01:07:00,33.4,25.0,29.09,South,180,5.8,5.8,71,0.00,CLR,,0.00,WeatherDisplay:10.37,2013-11-21 07:07:00,
2013-11-21 01:12:00,33.4,25.4,29.08,SSE,158,5.8,5.8,72,0.00,CLR,,0.00,WeatherDisplay:10.37,2013-11-21 07:12:00,
2013-11-21 01:17:00,33.6,25.9,29.08,SE,135,6.9,6.9,73,0.00,CLR,,0.00,WeatherDisplay:10.37,2013-11-21 07:17:00,
2013-11-21 01:22:00,33.6,25.9,29.09,SE,135,8.1,8.1,73,0.00,CLR,,0.00,WeatherDisplay:10.37,2013-11-21 07:22:00,
2013-11-21 01:27:00,33.6,25.6,29.08,SE,135,6.0,6.0,72,0.00,CLR,,0.00,WeatherDisplay:10.37,2013-11-21 07:27:00,
2013-11-21 01:32:00,33.6,25.2,29.09,SE,135,6.9,6.9,71,0.00,CLR,,0.00,WeatherDisplay:10.37,2013-11-21 07:32:00,
2013-11-21 01:37:00,33.6,25.2,29.09,SE,135,4.6,4.6,71,0.00,CLR,,0.00,WeatherDisplay:10.37,2013-11-21 07:37:00,
2013-11-21 01:42:00,33.6,25.2,29.09,SE,135,5.8,5.8,71,0.00,CLR,,0.00,WeatherDisplay:10.37,2013-11-21 07:42:00,
2013-11-21 01:47:00,33.4,25.0,29.09,SE,135,5.8,5.8,71,0.00,CLR,,0.00,WeatherDisplay:10.37,2013-11-21 07:47:00,
2013-11-21 01:52:00,33.6,26.2,29.10,SE,135,5.8,5.8,74,0.00,CLR,,0.00,WeatherDisplay:10.37,2013-11-21 07:52:00,
2013-11-21 01:57:00,33.6,26.5,29.09,SE,135,6.9,6.9,75,0.00,CLR,,0.00,WeatherDisplay:10.37,2013-11-21 07:57:00,
2013-11-21 02:02:00,33.4,26.7,29.10,SE,135,5.8,5.8,76,0.00,CLR,,0.00,WeatherDisplay:10.37,2013-11-21 08:02:00,
2013-11-21 02:07:00,33.6,27.2,29.09,SE,135,6.9,6.9,77,0.00,CLR,,0.00,WeatherDisplay:10.37,2013-11-21 08:07:00,
2013-11-21 02:12:00,33.4,27.0,29.10,SE,135,6.9,6.9,77,0.00,CLR,,0.00,WeatherDisplay:10.37,2013-11-21 08:12:00,
2013-11-21 02:17:00,33.6,27.5,29.10,SE,135,6.9,6.9,78,0.00,CLR,,0.00,WeatherDisplay:10.37,2013-11-21 08:17:00,
2013-11-21 02:22:00,33.6,27.5,29.10,SE,135,8.1,8.1,78,0.00,CLR,,0.00,WeatherDisplay:10.37,2013-11-21 08:22:00,
2013-11-21 02:27:00,33.6,27.8,29.10,SE,135,8.1,8.1,79,0.00,CLR,,0.00,WeatherDisplay:10.37,2013-11-21 08:27:00,
2013-11-21 02:32:00,33.6,28.4,29.10,SE,135,8.1,8.1,81,0.00,CLR,,0.00,WeatherDisplay:10.37,2013-11-21 08:32:00,
2013-11-21 02:37:00,33.6,28.7,29.10,SE,135,6.9,6.9,82,0.00,CLR,,0.00,WeatherDisplay:10.37,2013-11-21 08:37:00,
2013-11-21 02:42:00,33.6,29.0,29.11,South,180,6.9,6.9,83,0.00,CLR,,0.00,WeatherDisplay:10.37,2013-11-21 08:42:00,
2013-11-21 02:47:00,33.6,29.3,29.10,SE,135,6.9,6.9,84,0.00,CLR,,0.00,WeatherDisplay:10.37,2013-11-21 08:47:00,
2013-11-21 02:52:00,33.8,29.5,29.10,SE,135,6.9,6.9,84,0.00,CLR,,0.00,WeatherDisplay:10.37,2013-11-21 08:52:00,
2013-11-21 02:57:00,33.8,29.8,29.10,South,180,5.8,5.8,85,0.00,CLR,,0.00,WeatherDisplay:10.37,2013-11-21 08:57:00,
2013-11-21 03:02:00,33.8,29.8,29.10,South,180,5.8,5.8,85,0.00,CLR,,0.00,WeatherDisplay:10.37,2013-11-21 09:02:00,
2013-11-21 03:07:00,33.8,29.8,29.10,South,180,5.8,5.8,85,0.00,CLR,,0.00,WeatherDisplay:10.37,2013-11-21 09:07:00,
2013-11-21 03:12:00,33.8,30.1,29.11,South,180,6.9,6.9,86,0.00,CLR,,0.00,WeatherDisplay:10.37,2013-11-21 09:12:00,
2013-11-21 03:17:00,33.8,30.1,29.11,South,180,5.8,5.8,86,0.00,CLR,,0.00,WeatherDisplay:10.37,2013-11-21 09:17:00,
2013-11-21 03:22:00,33.8,30.1,29.11,South,180,3.5,3.5,86,0.00,CLR,,0.00,WeatherDisplay:10.37,2013-11-21 09:22:00,
2013-11-21 03:27:00,33.8,30.1,29.11,South,180,5.8,5.8,86,0.00,CLR,,0.00,WeatherDisplay:10.37,2013-11-21 09:27:00,
2013-11-21 03:32:00,33.6,30.4,29.11,SW,225,2.3,2.3,88,0.00,CLR,,0.00,WeatherDisplay:10.37,2013-11-21 09:32:00,
2013-11-21 03:37:00,33.6,30.4,29.11,South,180,3.5,3.5,88,0.00,CLR,,0.00,WeatherDisplay:10.37,2013-11-21 09:37:00,
2013-11-21 03:42:00,33.6,30.4,29.11,South,180,3.5,3.5,88,0.00,CLR,,0.00,WeatherDisplay:10.37,2013-11-21 09:42:00,
2013-11-21 03:47:00,33.6,30.4,29.11,South,180,3.5,3.5,88,0.00,CLR,,0.00,WeatherDisplay:10.37,2013-11-21 09:47:00,
2013-11-21 03:52:00,33.6,30.4,29.11,South,180,2.3,2.3,88,0.00,CLR,,0.00,WeatherDisplay:10.37,2013-11-21 09:52:00,
2013-11-21 03:57:00,33.6,30.7,29.11,SW,225,2.3,2.3,89,0.00,CLR,,0.00,WeatherDisplay:10.37,2013-11-21 09:57:00,
2013-11-21 04:02:00,33.4,30.5,29.11,South,180,2.3,2.3,89,0.00,CLR,,0.00,WeatherDisplay:10.37,2013-11-21 10:02:00,
2013-11-21 04:07:00,33.4,30.5,29.10,South,180,2.3,2.3,89,0.00,CLR,,0.00,WeatherDisplay:10.37,2013-11-21 10:07:00,
2013-11-21 04:12:00,33.6,30.7,29.10,South,180,3.5,3.5,89,0.00,CLR,,0.00,WeatherDisplay:10.37,2013-11-21 10:12:00,
2013-11-21 04:17:00,33.6,30.7,29.10,South,180,2.3,2.3,89,0.00,CLR,,0.00,WeatherDisplay:10.37,2013-11-21 10:17:00,
2013-11-21 04:22:00,33.6,31.0,29.11,South,180,2.3,2.3,90,0.00,CLR,,0.00,WeatherDisplay:10.37,2013-11-21 10:22:00,
2013-11-21 04:27:00,33.6,31.0,29.11,South,180,2.3,2.3,90,0.00,CLR,,0.00,WeatherDisplay:10.37,2013-11-21 10:27:00,
2013-11-21 04:32:00,33.6,31.0,29.11,South,180,2.3,2.3,90,0.00,CLR,,0.00,WeatherDisplay:10.37,2013-11-21 10:32:00,
2013-11-21 04:37:00,33.6,31.0,29.11,South,180,1.1,0.0,90,0.00,CLR,,0.00,WeatherDisplay:10.37,2013-11-21 10:37:00,
2013-11-21 04:42:00,33.6,31.0,29.11,SE,135,1.1,0.0,90,0.00,CLR,,0.00,WeatherDisplay:10.37,2013-11-21 10:42:00,
2013-11-21 04:47:00,33.4,30.8,29.11,SE,135,0.0,0.0,90,0.00,CLR,,0.00,WeatherDisplay:10.37,2013-11-21 10:47:00,
2013-11-21 04:52:00,33.4,30.8,29.11,SE,135,0.0,0.0,90,0.00,CLR,,0.00,WeatherDisplay:10.37,2013-11-21 10:52:00,
2013-11-21 04:57:00,33.4,30.8,29.11,NE,45,1.1,0.0,90,0.00,CLR,,0.00,WeatherDisplay:10.37,2013-11-21 10:57:00,
2013-11-21 05:02:00,33.3,30.6,29.11,NE,45,1.1,0.0,90,0.00,CLR,,0.00,WeatherDisplay:10.37,2013-11-21 11:02:00,
2013-11-21 05:07:00,33.3,30.6,29.11,NE,45,1.1,0.0,90,0.00,CLR,,0.00,WeatherDisplay:10.37,2013-11-21 11:07:00,
2013-11-21 05:12:00,33.1,30.5,29.11,NE,45,2.3,2.3,90,0.00,CLR,,0.00,WeatherDisplay:10.37,2013-11-21 11:12:00,
2013-11-21 05:17:00,32.9,29.7,29.12,North,0,1.1,0.0,88,0.00,CLR,,0.00,WeatherDisplay:10.37,2013-11-21 11:17:00,
2013-11-21 05:22:00,32.9,29.7,29.12,North,0,1.1,0.0,88,0.00,CLR,,0.00,WeatherDisplay:10.37,2013-11-21 11:22:00,
2013-11-21 05:27:00,32.9,29.7,29.12,North,0,1.1,0.0,88,0.00,CLR,,0.00,WeatherDisplay:10.37,2013-11-21 11:27:00,
2013-11-21 05:32:00,32.9,29.7,29.12,North,0,0.0,0.0,88,0.00,CLR,,0.00,WeatherDisplay:10.37,2013-11-21 11:32:00,
2013-11-21 05:37:00,32.9,29.7,29.12,North,0,1.1,0.0,88,0.00,CLR,,0.00,WeatherDisplay:10.37,2013-11-21 11:37:00,
2013-11-21 05:42:00,32.9,29.7,29.12,North,0,1.1,1.1,88,0.00,CLR,,0.00,WeatherDisplay:10.37,2013-11-21 11:42:00,
2013-11-21 05:47:00,32.9,29.7,29.12,North,0,1.1,1.1,88,0.00,CLR,,0.00,WeatherDisplay:10.37,2013-11-21 11:47:00,
2013-11-21 05:52:00,32.9,29.7,29.13,North,0,1.1,0.0,88,0.00,CLR,,0.00,WeatherDisplay:10.37,2013-11-21 11:52:00,
2013-11-21 05:57:00,32.9,29.7,29.13,North,0,1.1,0.0,88,0.00,CLR,,0.00,WeatherDisplay:10.37,2013-11-21 11:57:00,
2013-11-21 06:02:00,32.9,29.7,29.12,North,0,1.1,0.0,88,0.00,CLR,,0.00,WeatherDisplay:10.37,2013-11-21 12:02:00,
2013-11-21 06:07:00,32.9,29.7,29.12,North,0,1.1,0.0,88,0.00,CLR,,0.00,WeatherDisplay:10.37,2013-11-21 12:07:00,
2013-11-21 06:12:00,32.9,29.7,29.13,North,0,0.0,0.0,88,0.00,CLR,,0.00,WeatherDisplay:10.37,2013-11-21 12:12:00,
2013-11-21 06:17:00,32.9,29.7,29.13,North,0,0.0,0.0,88,0.00,CLR,,0.00,WeatherDisplay:10.37,2013-11-21 12:17:00,
2013-11-21 06:22:00,33.1,29.9,29.13,West,270,0.7,0.0,88,0.00,CLR,,0.00,WeatherDisplay:10.37,2013-11-21 12:22:00,
2013-11-21 06:27:00,33.1,29.9,29.13,North,0,1.1,1.1,88,0.00,CLR,,0.00,WeatherDisplay:10.37,2013-11-21 12:27:00,
2013-11-21 06:32:00,32.9,29.7,29.13,North,0,1.1,1.1,88,0.00,CLR,,0.00,WeatherDisplay:10.37,2013-11-21 12:32:00,
2013-11-21 06:37:00,32.9,29.7,29.13,North,0,1.1,1.1,88,0.00,CLR,,0.00,WeatherDisplay:10.37,2013-11-21 12:37:00,
2013-11-21 06:42:00,32.9,29.7,29.13,North,0,1.1,1.1,88,0.00,CLR,,0.00,WeatherDisplay:10.37,2013-11-21 12:42:00,
2013-11-21 06:47:00,32.9,29.7,29.14,North,0,1.1,0.0,88,0.00,CLR,,0.00,WeatherDisplay:10.37,2013-11-21 12:47:00,
2013-11-21 06:52:00,33.1,29.9,29.14,North,0,1.1,0.0,88,0.00,CLR,,0.00,WeatherDisplay:10.37,2013-11-21 12:52:00,
2013-11-21 06:57:00,33.1,29.9,29.14,North,0,1.1,0.0,88,0.00,CLR,,0.00,WeatherDisplay:10.37,2013-11-21 12:57:00,
2013-11-21 07:02:00,33.3,30.1,29.14,NE,45,1.1,0.0,88,0.00,CLR,,0.00,WeatherDisplay:10.37,2013-11-21 13:02:00,
2013-11-21 07:07:00,33.4,30.3,29.15,NE,45,1.1,0.0,88,0.00,CLR,,0.00,WeatherDisplay:10.37,2013-11-21 13:07:00,
2013-11-21 07:12:00,33.4,30.3,29.15,NE,45,0.0,0.0,88,0.00,CLR,,0.00,WeatherDisplay:10.37,2013-11-21 13:12:00,
2013-11-21 07:17:00,33.3,30.1,29.15,NE,45,1.1,0.0,88,0.00,CLR,,0.00,WeatherDisplay:10.37,2013-11-21 13:17:00,
2013-11-21 07:22:00,33.1,29.9,29.15,North,0,2.3,2.3,88,0.00,CLR,,0.00,WeatherDisplay:10.37,2013-11-21 13:22:00,
2013-11-21 07:27:00,33.3,30.1,29.15,NE,45,1.1,0.0,88,0.00,CLR,,0.00,WeatherDisplay:10.37,2013-11-21 13:27:00,
2013-11-21 07:32:00,33.1,29.9,29.16,NE,45,1.1,0.0,88,0.00,CLR,,0.00,WeatherDisplay:10.37,2013-11-21 13:32:00,
2013-11-21 07:37:00,33.3,30.1,29.16,NE,45,0.0,0.0,88,0.00,CLR,,0.00,WeatherDisplay:10.37,2013-11-21 13:37:00,
2013-11-21 07:42:00,33.3,30.1,29.16,North,0,1.1,0.0,88,0.00,CLR,,0.00,WeatherDisplay:10.37,2013-11-21 13:42:00,
2013-11-21 07:47:00,33.3,30.1,29.16,North,0,1.1,0.0,88,0.00,CLR,,0.00,WeatherDisplay:10.37,2013-11-21 13:47:00,
2013-11-21 07:52:00,33.3,30.1,29.16,North,0,1.1,0.0,88,0.00,CLR,,0.00,WeatherDisplay:10.37,2013-11-21 13:52:00,
2013-11-21 07:57:00,33.3,30.1,29.16,North,0,1.1,0.0,88,0.00,CLR,,0.00,WeatherDisplay:10.37,2013-11-21 13:57:00,
2013-11-21 08:02:00,33.4,30.3,29.16,North,0,0.0,0.0,88,0.00,CLR,,0.00,WeatherDisplay:10.37,2013-11-21 14:02:00,
2013-11-21 08:07:00,33.3,30.1,29.16,North,0,1.1,0.0,88,0.00,CLR,,0.00,WeatherDisplay:10.37,2013-11-21 14:07:00,
2013-11-21 08:12:00,33.4,29.4,29.16,North,0,1.1,0.0,85,0.00,CLR,,0.00,WeatherDisplay:10.37,2013-11-21 14:12:00,
2013-11-21 08:17:00,33.4,28.8,29.17,North,0,0.0,0.0,83,0.00,CLR,,0.00,WeatherDisplay:10.37,2013-11-21 14:17:00,
2013-11-21 08:22:00,33.4,28.8,29.17,NW,315,1.1,0.0,83,0.00,CLR,,0.00,WeatherDisplay:10.37,2013-11-21 14:22:00,
2013-11-21 08:27:00,33.4,28.8,29.18,NW,315,1.1,0.0,83,0.00,CLR,,0.00,WeatherDisplay:10.37,2013-11-21 14:27:00,
2013-11-21 08:32:00,33.6,29.3,29.18,West,270,1.1,0.0,84,0.00,CLR,,0.00,WeatherDisplay:10.37,2013-11-21 14:32:00,
2013-11-21 08:37:00,33.6,29.3,29.18,SW,225,2.3,2.3,84,0.00,CLR,,0.00,WeatherDisplay:10.37,2013-11-21 14:37:00,
2013-11-21 08:42:00,33.4,29.1,29.18,West,270,1.1,1.1,84,0.00,CLR,,0.00,WeatherDisplay:10.37,2013-11-21 14:42:00,
2013-11-21 08:47:00,33.4,29.1,29.18,North,0,1.1,0.0,84,0.00,CLR,,0.00,WeatherDisplay:10.37,2013-11-21 14:47:00,
2013-11-21 08:52:00,33.4,28.8,29.18,NW,315,1.1,0.0,83,0.00,CLR,,0.00,WeatherDisplay:10.37,2013-11-21 14:52:00,
2013-11-21 08:57:00,33.8,29.2,29.18,NW,315,0.0,0.0,83,0.00,CLR,,0.00,WeatherDisplay:10.37,2013-11-21 14:57:00,
2013-11-21 09:02:00,33.8,29.2,29.18,NW,315,0.0,0.0,83,0.00,CLR,,0.00,WeatherDisplay:10.37,2013-11-21 15:02:00,
2013-11-21 09:07:00,34.0,29.7,29.18,SW,225,0.0,0.0,84,0.00,CLR,,0.00,WeatherDisplay:10.37,2013-11-21 15:07:00,
2013-11-21 09:12:00,34.2,29.8,29.18,SW,225,0.0,0.0,84,0.00,CLR,,0.00,WeatherDisplay:10.37,2013-11-21 15:12:00,
2013-11-21 09:17:00,34.2,29.8,29.18,West,270,1.1,0.0,84,0.00,CLR,,0.00,WeatherDisplay:10.37,2013-11-21 15:17:00,
2013-11-21 09:22:00,34.3,29.7,29.18,West,270,2.3,2.3,83,0.00,CLR,,0.00,WeatherDisplay:10.37,2013-11-21 15:22:00,
2013-11-21 09:27:00,34.2,29.5,29.18,West,270,1.1,0.0,83,0.00,CLR,,0.00,WeatherDisplay:10.37,2013-11-21 15:27:00,
2013-11-21 09:32:00,34.0,29.7,29.19,SW,225,3.5,3.5,84,0.00,CLR,,0.00,WeatherDisplay:10.37,2013-11-21 15:32:00,
2013-11-21 09:37:00,33.8,29.2,29.20,West,270,4.6,4.6,83,0.00,CLR,,0.00,WeatherDisplay:10.37,2013-11-21 15:37:00,
2013-11-21 09:42:00,33.6,29.0,29.20,SW,225,4.6,4.6,83,0.00,CLR,,0.00,WeatherDisplay:10.37,2013-11-21 15:42:00,
2013-11-21 09:47:00,33.6,29.0,29.20,West,270,3.5,3.5,83,0.00,CLR,,0.00,WeatherDisplay:10.37,2013-11-21 15:47:00,
2013-11-21 09:52:00,33.6,29.0,29.20,SW,225,1.1,1.1,83,0.00,CLR,,0.00,WeatherDisplay:10.37,2013-11-21 15:52:00,
2013-11-21 09:57:00,33.8,29.2,29.20,West,270,2.3,0.0,83,0.00,CLR,,0.00,WeatherDisplay:10.37,2013-11-21 15:57:00,
2013-11-21 10:02:00,34.0,29.4,29.20,NW,315,1.1,0.0,83,0.00,CLR,,0.00,WeatherDisplay:10.37,2013-11-21 16:02:00,
2013-11-21 10:07:00,34.2,29.5,29.20,NW,315,1.1,0.0,83,0.00,CLR,,0.00,WeatherDisplay:10.37,2013-11-21 16:07:00,
2013-11-21 10:12:00,34.2,29.5,29.19,North,0,1.1,1.1,83,0.00,CLR,,0.00,WeatherDisplay:10.37,2013-11-21 16:12:00,
2013-11-21 10:17:00,34.3,29.7,29.20,SW,225,1.1,0.0,83,0.00,CLR,,0.00,WeatherDisplay:10.37,2013-11-21 16:17:00,
2013-11-21 10:22:00,34.3,29.7,29.20,West,270,0.0,0.0,83,0.00,CLR,,0.00,WeatherDisplay:10.37,2013-11-21 16:22:00,
2013-11-21 10:27:00,34.3,29.7,29.20,NW,315,2.3,2.3,83,0.00,CLR,,0.00,WeatherDisplay:10.37,2013-11-21 16:27:00,
2013-11-21 10:32:00,34.3,29.7,29.20,NW,315,2.3,2.3,83,0.00,CLR,,0.00,WeatherDisplay:10.37,2013-11-21 16:32:00,
2013-11-21 10:37:00,34.5,29.9,29.21,West,270,2.3,2.3,83,0.00,CLR,,0.00,WeatherDisplay:10.37,2013-11-21 16:37:00,
2013-11-21 10:42:00,34.3,29.7,29.20,West,270,2.3,2.3,83,0.00,CLR,,0.00,WeatherDisplay:10.37,2013-11-21 16:42:00,
2013-11-21 10:47:00,34.5,29.9,29.20,NW,315,1.1,1.1,83,0.00,CLR,,0.00,WeatherDisplay:10.37,2013-11-21 16:47:00,
2013-11-21 10:52:00,34.5,29.9,29.20,NW,315,1.1,0.0,83,0.00,CLR,,0.00,WeatherDisplay:10.37,2013-11-21 16:52:00,
2013-11-21 10:57:00,34.7,30.1,29.20,NW,315,3.5,3.5,83,0.00,CLR,,0.00,WeatherDisplay:10.37,2013-11-21 16:57:00,
2013-11-21 11:02:00,34.5,29.9,29.20,NW,315,3.5,3.5,83,0.00,CLR,,0.00,WeatherDisplay:10.37,2013-11-21 17:02:00,
2013-11-21 11:07:00,34.5,29.9,29.19,NW,315,3.5,3.5,83,0.00,CLR,,0.00,WeatherDisplay:10.37,2013-11-21 17:07:00,
2013-11-21 11:12:00,34.5,29.6,29.19,NW,315,3.5,3.5,82,0.00,CLR,,0.00,WeatherDisplay:10.37,2013-11-21 17:12:00,
2013-11-21 11:17:00,34.7,29.8,29.19,North,0,3.5,3.5,82,0.00,CLR,,0.00,WeatherDisplay:10.37,2013-11-21 17:17:00,
2013-11-21 11:22:00,34.9,29.9,29.19,North,0,1.1,1.1,82,0.00,CLR,,0.00,WeatherDisplay:10.37,2013-11-21 17:22:00,
2013-11-21 11:27:00,35.1,30.1,29.19,North,0,2.3,2.3,82,0.00,CLR,,0.00,WeatherDisplay:10.37,2013-11-21 17:27:00,
2013-11-21 11:32:00,34.9,29.9,29.19,North,0,3.5,3.5,82,0.00,CLR,,0.00,WeatherDisplay:10.37,2013-11-21 17:32:00,
2013-11-21 11:37:00,34.7,29.8,29.19,NW,315,4.6,4.6,82,0.00,CLR,,0.00,WeatherDisplay:10.37,2013-11-21 17:37:00,
2013-11-21 11:42:00,34.7,29.5,29.19,NW,315,4.6,4.6,81,0.00,CLR,,0.00,WeatherDisplay:10.37,2013-11-21 17:42:00,
2013-11-21 11:47:00,34.7,29.5,29.19,North,0,2.3,2.3,81,0.00,CLR,,0.00,WeatherDisplay:10.37,2013-11-21 17:47:00,
2013-11-21 11:52:00,34.7,29.5,29.19,North,0,2.3,2.3,81,0.00,CLR,,0.00,WeatherDisplay:10.37,2013-11-21 17:52:00,
2013-11-21 11:57:00,34.9,29.6,29.20,West,270,1.1,0.0,81,0.00,CLR,,0.00,WeatherDisplay:10.37,2013-11-21 17:57:00,
2013-11-21 12:02:00,35.1,29.8,29.20,South,180,2.3,2.3,81,0.00,CLR,,0.00,WeatherDisplay:10.37,2013-11-21 18:02:00,
2013-11-21 12:07:00,34.9,29.6,29.21,South,180,3.5,3.5,81,0.00,CLR,,0.00,WeatherDisplay:10.37,2013-11-21 18:07:00,
2013-11-21 12:12:00,34.9,29.6,29.21,South,180,3.5,3.5,81,0.00,CLR,,0.00,WeatherDisplay:10.37,2013-11-21 18:12:00,
2013-11-21 12:17:00,34.7,29.5,29.22,SW,225,3.5,3.5,81,0.00,CLR,,0.00,WeatherDisplay:10.37,2013-11-21 18:17:00,
2013-11-21 12:22:00,34.7,29.5,29.21,SW,225,1.1,0.0,81,0.00,CLR,,0.00,WeatherDisplay:10.37,2013-11-21 18:22:00,
2013-11-21 12:27:00,34.7,29.5,29.21,West,270,2.3,0.0,81,0.00,CLR,,0.00,WeatherDisplay:10.37,2013-11-21 18:27:00,
2013-11-21 12:32:00,34.5,29.3,29.22,West,270,3.5,3.5,81,0.00,CLR,,0.00,WeatherDisplay:10.37,2013-11-21 18:32:00,
2013-11-21 12:37:00,34.7,29.5,29.22,West,270,2.3,2.3,81,0.00,CLR,,0.00,WeatherDisplay:10.37,2013-11-21 18:37:00,
2013-11-21 12:42:00,34.9,29.6,29.21,SW,225,1.1,0.0,81,0.00,CLR,,0.00,WeatherDisplay:10.37,2013-11-21 18:42:00,
2013-11-21 12:47:00,35.1,29.8,29.22,West,270,2.3,2.3,81,0.00,CLR,,0.00,WeatherDisplay:10.37,2013-11-21 18:47:00,
2013-11-21 12:52:00,35.1,29.8,29.22,West,270,1.1,0.0,81,0.00,CLR,,0.00,WeatherDisplay:10.37,2013-11-21 18:52:00,
2013-11-21 12:57:00,35.1,29.8,29.21,NW,315,2.3,2.3,81,0.00,CLR,,0.00,WeatherDisplay:10.37,2013-11-21 18:57:00,
2013-11-21 13:02:00,35.2,30.0,29.21,NW,315,2.2,2.2,81,0.00,CLR,,0.00,WeatherDisplay:10.37,2013-11-21 19:02:00,
2013-11-21 13:07:00,35.2,30.0,29.21,NW,315,1.1,1.1,81,0.00,CLR,,0.00,WeatherDisplay:10.37,2013-11-21 19:07:00,
2013-11-21 13:12:00,35.2,30.0,29.21,NW,315,2.3,2.3,81,0.00,CLR,,0.00,WeatherDisplay:10.37,2013-11-21 19:12:00,
2013-11-21 13:17:00,35.4,30.2,29.22,NW,315,2.3,2.3,81,0.00,CLR,,0.00,WeatherDisplay:10.37,2013-11-21 19:17:00,
2013-11-21 13:22:00,35.4,30.5,29.22,NNW,338,2.3,2.3,82,0.00,CLR,,0.00,WeatherDisplay:10.37,2013-11-21 19:22:00,
2013-11-21 13:27:00,35.4,30.2,29.22,NW,315,1.1,0.0,81,0.00,CLR,,0.00,WeatherDisplay:10.37,2013-11-21 19:27:00,
2013-11-21 13:32:00,35.4,30.2,29.22,NW,315,2.3,2.3,81,0.00,CLR,,0.00,WeatherDisplay:10.37,2013-11-21 19:32:00,
2013-11-21 13:37:00,35.4,30.2,29.21,North,0,2.3,2.3,81,0.00,CLR,,0.00,WeatherDisplay:10.37,2013-11-21 19:37:00,
2013-11-21 13:42:00,35.4,30.2,29.21,NW,315,9.2,9.2,81,0.00,CLR,,0.00,WeatherDisplay:10.37,2013-11-21 19:42:00,
2013-11-21 13:47:00,34.9,29.3,29.22,NW,315,12.7,12.7,80,0.00,CLR,,0.00,WeatherDisplay:10.37,2013-11-21 19:47:00,
2013-11-21 13:52:00,34.5,28.7,29.22,North,0,8.1,8.1,79,0.00,CLR,,0.00,WeatherDisplay:10.37,2013-11-21 19:52:00,
2013-11-21 13:57:00,34.3,29.4,29.22,NW,315,12.7,12.7,82,0.00,CLR,,0.00,WeatherDisplay:10.37,2013-11-21 19:57:00,
2013-11-21 14:02:00,34.0,28.8,29.23,North,0,12.7,12.7,81,0.00,CLR,,0.00,WeatherDisplay:10.37,2013-11-21 20:02:00,
2013-11-21 14:07:00,33.8,28.0,29.23,NW,315,8.1,8.1,79,0.00,CLR,,0.00,WeatherDisplay:10.37,2013-11-21 20:07:00,
2013-11-21 14:12:00,33.8,27.7,29.22,NW,315,10.4,10.4,78,0.00,CLR,,0.00,WeatherDisplay:10.37,2013-11-21 20:12:00,
2013-11-21 14:17:00,33.8,28.3,29.23,WNW,292,8.1,8.1,80,0.00,CLR,,0.00,WeatherDisplay:10.37,2013-11-21 20:17:00,
2013-11-21 14:22:00,33.6,27.5,29.23,NW,315,11.5,11.5,78,0.00,CLR,,0.00,WeatherDisplay:10.37,2013-11-21 20:22:00,
2013-11-21 14:27:00,33.4,27.3,29.24,NW,315,13.8,13.8,78,0.00,CLR,,0.00,WeatherDisplay:10.37,2013-11-21 20:27:00,
2013-11-21 14:32:00,33.3,27.1,29.24,NW,315,15.0,15.0,78,0.00,CLR,,0.00,WeatherDisplay:10.37,2013-11-21 20:32:00,
2013-11-21 14:37:00,33.1,27.3,29.24,WNW,292,12.7,12.7,79,0.00,CLR,,0.00,WeatherDisplay:10.37,2013-11-21 20:37:00,
2013-11-21 14:42:00,33.1,27.6,29.24,NW,315,12.1,12.1,80,0.00,CLR,,0.00,WeatherDisplay:10.37,2013-11-21 20:42:00,
2013-11-21 14:47:00,33.1,28.5,29.25,North,0,8.1,8.1,83,0.00,CLR,,0.00,WeatherDisplay:10.37,2013-11-21 20:47:00,
2013-11-21 14:52:00,32.7,28.7,29.25,North,0,17.3,17.3,85,0.00,CLR,,0.00,WeatherDisplay:10.37,2013-11-21 20:52:00,
2013-11-21 14:57:00,32.5,28.5,29.25,North,0,12.7,12.7,85,0.00,CLR,,0.00,WeatherDisplay:10.37,2013-11-21 20:57:00,
2013-11-21 15:02:00,32.5,28.5,29.25,NW,315,8.1,8.1,85,0.00,CLR,,0.00,WeatherDisplay:10.37,2013-11-21 21:02:00,
2013-11-21 15:07:00,32.4,28.4,29.25,NW,315,12.7,12.7,85,0.00,CLR,,0.00,WeatherDisplay:10.37,2013-11-21 21:07:00,
2013-11-21 15:12:00,32.4,28.4,29.25,NW,315,12.7,12.7,85,0.00,CLR,,0.00,WeatherDisplay:10.37,2013-11-21 21:12:00,
2013-11-21 15:17:00,32.4,28.4,29.25,North,1,12.7,12.7,85,0.00,CLR,,0.00,WeatherDisplay:10.37,2013-11-21 21:17:00,
2013-11-21 15:22:00,32.2,28.2,29.25,NNW,338,12.7,12.7,85,0.00,CLR,,0.00,WeatherDisplay:10.37,2013-11-21 21:22:00,
2013-11-21 15:27:00,32.2,28.2,29.25,NNW,338,12.7,12.7,85,0.00,CLR,,0.00,WeatherDisplay:10.37,2013-11-21 21:27:00,
2013-11-21 15:32:00,32.2,27.9,29.26,North,0,12.7,12.7,84,0.00,CLR,,0.00,WeatherDisplay:10.37,2013-11-21 21:32:00,
2013-11-21 15:37:00,32.2,27.9,29.26,NNW,338,13.8,13.8,84,0.00,CLR,,0.00,WeatherDisplay:10.37,2013-11-21 21:37:00,
2013-11-21 15:42:00,32.2,27.9,29.26,NW,315,8.1,8.1,84,0.00,CLR,,0.00,WeatherDisplay:10.37,2013-11-21 21:42:00,
2013-11-21 15:47:00,32.2,27.6,29.26,NW,315,11.5,11.5,83,0.00,CLR,,0.00,WeatherDisplay:10.37,2013-11-21 21:47:00,
2013-11-21 15:52:00,32.0,27.4,29.26,NW,315,16.1,16.1,83,0.00,CLR,,0.00,WeatherDisplay:10.37,2013-11-21 21:52:00,
2013-11-21 15:57:00,31.8,27.0,29.26,North,0,16.1,16.1,82,0.00,CLR,,0.00,WeatherDisplay:10.37,2013-11-21 21:57:00,
2013-11-21 16:02:00,31.6,26.8,29.27,NW,315,11.5,11.5,82,0.00,CLR,,0.00,WeatherDisplay:10.37,2013-11-21 22:02:00,
2013-11-21 16:07:00,31.6,26.8,29.27,North,0,16.8,16.8,82,0.00,CLR,,0.00,WeatherDisplay:10.37,2013-11-21 22:07:00,
2013-11-21 16:12:00,31.6,26.8,29.28,NW,315,17.3,17.3,82,0.00,CLR,,0.00,WeatherDisplay:10.37,2013-11-21 22:12:00,
2013-11-21 16:17:00,31.5,26.6,29.28,NW,315,12.7,12.7,82,0.00,CLR,,0.00,WeatherDisplay:10.37,2013-11-21 22:17:00,
2013-11-21 16:22:00,31.5,26.3,29.28,NW,315,15.0,15.0,81,0.00,CLR,,0.00,WeatherDisplay:10.37,2013-11-21 22:22:00,
2013-11-21 16:27:00,31.3,26.1,29.28,NW,315,15.0,15.0,81,0.00,CLR,,0.00,WeatherDisplay:10.37,2013-11-21 22:27:00,
2013-11-21 16:32:00,31.1,26.0,29.28,WNW,292,16.1,16.1,81,0.00,CLR,,0.00,WeatherDisplay:10.37,2013-11-21 22:32:00,
2013-11-21 16:37:00,30.9,26.1,29.28,NW,315,16.1,16.1,82,0.00,CLR,,0.00,WeatherDisplay:10.37,2013-11-21 22:37:00,
2013-11-21 16:42:00,30.7,25.9,29.29,NW,315,13.8,13.8,82,0.00,CLR,,0.00,WeatherDisplay:10.37,2013-11-21 22:42:00,
2013-11-21 16:47:00,30.4,25.5,29.29,NW,315,17.3,17.3,82,0.00,CLR,,0.00,WeatherDisplay:10.37,2013-11-21 22:47:00,
2013-11-21 16:52:00,30.0,25.2,29.29,NW,315,17.3,17.3,82,0.00,CLR,,0.00,WeatherDisplay:10.37,2013-11-21 22:52:00,
2013-11-21 16:57:00,30.0,25.5,29.30,North,0,16.1,16.1,83,0.00,CLR,,0.00,WeatherDisplay:10.37,2013-11-21 22:57:00,
2013-11-21 17:02:00,29.8,25.3,29.30,NW,315,15.0,15.0,83,0.00,CLR,,0.00,WeatherDisplay:10.37,2013-11-21 23:02:00,
2013-11-21 17:07:00,29.8,25.3,29.30,North,0,12.7,12.7,83,0.00,CLR,,0.00,WeatherDisplay:10.37,2013-11-21 23:07:00,
2013-11-21 17:12:00,29.7,25.1,29.30,NW,315,15.0,15.0,83,0.00,CLR,,0.00,WeatherDisplay:10.37,2013-11-21 23:12:00,
2013-11-21 17:17:00,29.5,25.0,29.31,NW,315,12.7,12.7,83,0.00,CLR,,0.00,WeatherDisplay:10.37,2013-11-21 23:17:00,
2013-11-21 17:22:00,29.5,25.0,29.31,North,0,9.2,9.2,83,0.00,CLR,,0.00,WeatherDisplay:10.37,2013-11-21 23:22:00,
2013-11-21 17:27:00,29.5,25.0,29.31,NW,315,12.7,12.7,83,0.00,CLR,,0.00,WeatherDisplay:10.37,2013-11-21 23:27:00,
2013-11-21 17:32:00,29.3,24.8,29.31,NW,315,10.4,10.4,83,0.00,CLR,,0.00,WeatherDisplay:10.37,2013-11-21 23:32:00,
2013-11-21 17:37:00,29.3,24.8,29.31,NW,315,10.4,10.4,83,0.00,CLR,,0.00,WeatherDisplay:10.37,2013-11-21 23:37:00,
2013-11-21 17:42:00,28.9,24.4,29.31,North,0,10.4,10.4,83,0.00,CLR,,0.00,WeatherDisplay:10.37,2013-11-21 23:42:00,
2013-11-21 17:47:00,28.8,24.2,29.31,NW,315,8.1,8.1,83,0.00,CLR,,0.00,WeatherDisplay:10.37,2013-11-21 23:47:00,
2013-11-21 17:52:00,28.8,24.2,29.31,North,0,6.9,6.9,83,0.00,CLR,,0.00,WeatherDisplay:10.37,2013-11-21 23:52:00,
2013-11-21 17:57:00,28.8,24.5,29.31,North,0,10.4,10.4,84,0.00,CLR,,0.00,WeatherDisplay:10.37,2013-11-21 23:57:00,
2013-11-21 18:02:00,28.8,24.5,29.32,NW,315,11.5,11.5,84,0.00,CLR,,0.00,WeatherDisplay:10.37,2013-11-22 00:02:00,
2013-11-21 18:07:00,28.8,24.0,29.32,NW,315,11.5,11.5,82,0.00,CLR,,0.00,WeatherDisplay:10.37,2013-11-22 00:07:00,
2013-11-21 18:12:00,28.6,23.2,29.32,North,0,15.0,15.0,80,0.00,CLR,,0.00,WeatherDisplay:10.37,2013-11-22 00:12:00,
2013-11-21 18:17:00,28.4,22.7,29.32,North,0,11.5,11.5,79,0.00,CLR,,0.00,WeatherDisplay:10.37,2013-11-22 00:17:00,
2013-11-21 18:22:00,28.4,22.7,29.33,NNW,338,15.0,15.0,79,0.00,CLR,,0.00,WeatherDisplay:10.37,2013-11-22 00:22:00,
2013-11-21 18:27:00,28.4,22.7,29.33,North,0,11.5,11.5,79,0.00,CLR,,0.00,WeatherDisplay:10.37,2013-11-22 00:27:00,
2013-11-21 18:32:00,28.2,22.5,29.33,NW,315,12.7,12.7,79,0.00,CLR,,0.00,WeatherDisplay:10.37,2013-11-22 00:32:00,
2013-11-21 18:37:00,28.0,22.7,29.33,North,0,11.5,11.5,80,0.00,CLR,,0.00,WeatherDisplay:10.37,2013-11-22 00:37:00,
2013-11-21 18:42:00,28.0,22.7,29.33,NW,315,10.4,10.4,80,0.00,CLR,,0.00,WeatherDisplay:10.37,2013-11-22 00:42:00,
2013-11-21 18:47:00,28.0,22.7,29.33,NE,45,13.8,13.8,80,0.00,CLR,,0.00,WeatherDisplay:10.37,2013-11-22 00:47:00,
2013-11-21 18:52:00,28.0,22.7,29.33,NW,315,12.7,12.7,80,0.00,CLR,,0.00,WeatherDisplay:10.37,2013-11-22 00:52:00,
2013-11-21 18:57:00,28.0,23.0,29.34,North,0,8.1,8.1,81,0.00,CLR,,0.00,WeatherDisplay:10.37,2013-11-22 00:57:00,
2013-11-21 19:02:00,28.0,23.3,29.33,NNW,338,5.8,5.8,82,0.00,CLR,,0.00,WeatherDisplay:10.37,2013-11-22 01:02:00,
2013-11-21 19:07:00,27.9,23.1,29.34,North,0,9.2,9.2,82,0.00,CLR,,0.00,WeatherDisplay:10.37,2013-11-22 01:07:00,
2013-11-21 19:12:00,27.9,23.1,29.34,NW,315,9.2,9.2,82,0.00,CLR,,0.00,WeatherDisplay:10.37,2013-11-22 01:12:00,
2013-11-21 19:17:00,28.0,23.3,29.35,North,0,5.8,5.8,82,0.00,CLR,,0.00,WeatherDisplay:10.37,2013-11-22 01:17:00,
2013-11-21 19:22:00,28.0,23.3,29.35,NW,315,13.8,13.8,82,0.00,CLR,,0.00,WeatherDisplay:10.37,2013-11-22 01:22:00,
2013-11-21 19:27:00,28.0,22.7,29.35,North,0,10.4,10.4,80,0.00,CLR,,0.00,WeatherDisplay:10.37,2013-11-22 01:27:00,
2013-11-21 19:32:00,28.0,22.7,29.35,NW,315,8.1,8.1,80,0.00,CLR,,0.00,WeatherDisplay:10.37,2013-11-22 01:32:00,
2013-11-21 19:37:00,28.0,22.7,29.36,NW,315,15.0,15.0,80,0.00,CLR,,0.00,WeatherDisplay:10.37,2013-11-22 01:37:00,
2013-11-21 19:42:00,27.9,22.5,29.36,NW,315,9.2,9.2,80,0.00,CLR,,0.00,WeatherDisplay:10.37,2013-11-22 01:42:00,
2013-11-21 19:47:00,27.9,22.5,29.36,NNW,338,10.4,10.4,80,0.00,CLR,,0.00,WeatherDisplay:10.37,2013-11-22 01:47:00,
2013-11-21 19:52:00,27.9,22.5,29.37,NW,315,10.4,10.4,80,0.00,CLR,,0.00,WeatherDisplay:10.37,2013-11-22 01:52:00,
2013-11-21 19:57:00,27.9,22.5,29.37,NW,315,10.4,10.4,80,0.00,CLR,,0.00,WeatherDisplay:10.37,2013-11-22 01:57:00,
2013-11-21 20:02:00,27.9,22.5,29.37,North,0,9.2,9.2,80,0.00,CLR,,0.00,WeatherDisplay:10.37,2013-11-22 02:02:00,
2013-11-21 20:07:00,27.9,22.5,29.36,NW,315,12.7,12.7,80,0.00,CLR,,0.00,WeatherDisplay:10.37,2013-11-22 02:07:00,
2013-11-21 20:08:00,27.9,22.5,29.37,NNW,338,12.7,12.7,80,0.00,CLR,,0.00,WeatherDisplay:10.37,2013-11-22 02:08:00,
2013-11-21 20:09:00,27.9,22.5,29.37,NNW,338,8.1,8.1,80,0.00,CLR,,0.00,WeatherDisplay:10.37,2013-11-22 02:09:00,
2013-11-21 20:14:00,27.7,22.6,29.36,North,0,11.5,11.5,81,0.00,CLR,,0.00,WeatherDisplay:10.37,2013-11-22 02:14:00,
2013-11-21 20:19:00,27.5,22.4,29.37,North,0,15.0,15.0,81,0.00,CLR,,0.00,WeatherDisplay:10.37,2013-11-22 02:19:00,
2013-11-21 20:24:00,27.5,22.4,29.37,North,0,10.4,10.4,81,0.00,CLR,,0.00,WeatherDisplay:10.37,2013-11-22 02:24:00,
2013-11-21 20:29:00,27.5,22.7,29.37,NW,315,15.0,15.0,82,0.00,CLR,,0.00,WeatherDisplay:10.37,2013-11-22 02:29:00,
2013-11-21 20:34:00,27.3,22.5,29.38,WNW,292,10.4,10.4,82,0.00,CLR,,0.00,WeatherDisplay:10.37,2013-11-22 02:34:00,
2013-11-21 20:39:00,27.1,22.4,29.38,NW,315,15.0,15.0,82,0.00,CLR,,0.00,WeatherDisplay:10.37,2013-11-22 02:39:00,
2013-11-21 20:44:00,26.6,22.1,29.37,NW,315,12.7,12.7,83,0.00,CLR,,0.00,WeatherDisplay:10.37,2013-11-22 02:44:00,
2013-11-21 20:49:00,26.8,22.6,29.38,North,0,11.5,11.5,84,0.00,CLR,,0.00,WeatherDisplay:10.37,2013-11-22 02:49:00,
2013-11-21 20:54:00,26.8,22.6,29.38,NW,315,12.7,12.7,84,0.00,CLR,,0.00,WeatherDisplay:10.37,2013-11-22 02:54:00,
2013-11-21 20:59:00,26.2,22.3,29.38,NNW,338,15.0,15.0,85,0.00,CLR,,0.00,WeatherDisplay:10.37,2013-11-22 02:59:00,
2013-11-21 21:04:00,26.2,22.3,29.38,NNW,338,9.2,9.2,85,0.00,CLR,,0.00,WeatherDisplay:10.37,2013-11-22 03:04:00,
2013-11-21 21:09:00,26.4,23.1,29.39,NW,315,11.5,11.5,87,0.00,CLR,,0.00,WeatherDisplay:10.37,2013-11-22 03:09:00,
2013-11-21 21:14:00,26.2,23.2,29.39,North,0,10.7,10.7,88,0.00,CLR,,0.00,WeatherDisplay:10.37,2013-11-22 03:14:00,
2013-11-21 21:19:00,26.2,23.4,29.39,North,0,11.5,11.5,89,0.00,CLR,,0.00,WeatherDisplay:10.37,2013-11-22 03:19:00,
2013-11-21 21:24:00,26.1,23.3,29.39,NW,315,10.4,10.4,89,0.00,CLR,,0.00,WeatherDisplay:10.37,2013-11-22 03:24:00,
2013-11-21 21:29:00,26.1,23.5,29.39,NNE,14,13.8,13.8,90,0.00,CLR,,0.00,WeatherDisplay:10.37,2013-11-22 03:29:00,
2013-11-21 21:34:00,26.1,23.5,29.40,NW,315,6.9,6.9,90,0.00,CLR,,0.00,WeatherDisplay:10.37,2013-11-22 03:34:00,
2013-11-21 21:39:00,26.1,23.5,29.40,NW,315,11.5,11.5,90,0.00,CLR,,0.00,WeatherDisplay:10.37,2013-11-22 03:39:00,
2013-11-21 21:44:00,26.1,23.5,29.40,NW,315,10.4,10.4,90,0.00,CLR,,0.00,WeatherDisplay:10.37,2013-11-22 03:44:00,
2013-11-21 21:49:00,25.9,23.4,29.40,NW,315,8.1,8.1,90,0.00,CLR,,0.00,WeatherDisplay:10.37,2013-11-22 03:49:00,
2013-11-21 21:54:00,25.9,23.6,29.40,NW,315,12.7,12.7,91,0.00,CLR,,0.00,WeatherDisplay:10.37,2013-11-22 03:54:00,
2013-11-21 21:59:00,25.9,23.6,29.40,North,0,9.2,9.2,91,0.00,CLR,,0.00,WeatherDisplay:10.37,2013-11-22 03:59:00,
2013-11-21 22:04:00,25.9,23.6,29.41,North,0,12.7,12.7,91,0.00,CLR,,0.00,WeatherDisplay:10.37,2013-11-22 04:04:00,
2013-11-21 22:09:00,25.5,23.3,29.40,North,0,15.0,15.0,91,0.00,CLR,,0.00,WeatherDisplay:10.37,2013-11-22 04:09:00,
2013-11-21 22:14:00,25.5,23.5,29.40,North,0,12.7,12.7,92,0.00,CLR,,0.00,WeatherDisplay:10.37,2013-11-22 04:14:00,
2013-11-21 22:19:00,25.5,23.3,29.40,NW,315,10.4,10.4,91,0.00,CLR,,0.00,WeatherDisplay:10.37,2013-11-22 04:19:00,
2013-11-21 22:24:00,25.5,23.3,29.41,NW,315,10.4,10.4,91,0.00,CLR,,0.00,WeatherDisplay:10.37,2013-11-22 04:24:00,
2013-11-21 22:29:00,25.5,23.5,29.40,North,0,10.4,10.4,92,0.00,CLR,,0.00,WeatherDisplay:10.37,2013-11-22 04:29:00,
2013-11-21 22:34:00,25.5,23.5,29.41,NW,315,10.4,10.4,92,0.00,CLR,,0.00,WeatherDisplay:10.37,2013-11-22 04:34:00,
2013-11-21 22:39:00,25.5,23.5,29.41,NNW,338,15.0,15.0,92,0.00,CLR,,0.00,WeatherDisplay:10.37,2013-11-22 04:39:00,
2013-11-21 22:44:00,25.5,23.5,29.41,NW,315,9.2,9.2,92,0.00,CLR,,0.00,WeatherDisplay:10.37,2013-11-22 04:44:00,
2013-11-21 22:49:00,25.3,23.3,29.41,NW,315,8.1,8.1,92,0.00,CLR,,0.00,WeatherDisplay:10.37,2013-11-22 04:49:00,
2013-11-21 22:54:00,25.3,23.1,29.41,North,0,12.7,12.7,91,0.00,CLR,,0.00,WeatherDisplay:10.37,2013-11-22 04:54:00,
2013-11-21 22:59:00,25.2,23.2,29.41,NW,315,15.0,15.0,92,0.00,CLR,,0.00,WeatherDisplay:10.37,2013-11-22 04:59:00,
2013-11-21 23:01:00,25.2,23.2,29.42,NW,315,15.0,15.0,92,0.00,CLR,,0.00,WeatherDisplay:10.37,2013-11-22 05:01:00,
2013-11-21 23:02:00,25.2,23.2,29.42,NW,315,15.0,15.0,92,0.00,CLR,,0.00,WeatherDisplay:10.37,2013-11-22 05:02:00,
2013-11-21 23:07:00,25.0,22.7,29.41,WNW,292,15.0,15.0,91,0.00,CLR,,0.00,WeatherDisplay:10.37,2013-11-22 05:07:00,
2013-11-21 23:12:00,25.0,23.0,29.42,NNW,338,8.1,8.1,92,0.00,CLR,,0.00,WeatherDisplay:10.37,2013-11-22 05:12:00,
2013-11-21 23:17:00,25.0,23.0,29.42,NNE,22,10.7,10.7,92,0.00,CLR,,0.00,WeatherDisplay:10.37,2013-11-22 05:17:00,
2013-11-21 23:22:00,25.0,23.0,29.42,NW,315,12.7,12.7,92,0.00,CLR,,0.00,WeatherDisplay:10.37,2013-11-22 05:22:00,
2013-11-21 23:27:00,25.0,23.0,29.42,WNW,292,9.2,9.2,92,0.00,CLR,,0.00,WeatherDisplay:10.37,2013-11-22 05:27:00,
2013-11-21 23:32:00,25.0,22.7,29.42,NW,315,15.2,15.2,91,0.00,CLR,,0.00,WeatherDisplay:10.37,2013-11-22 05:32:00,
2013-11-21 23:37:00,24.8,22.5,29.43,North,0,15.0,15.0,91,0.00,CLR,,0.00,WeatherDisplay:10.37,2013-11-22 05:37:00,
2013-11-21 23:42:00,24.8,22.5,29.43,WNW,292,17.3,17.3,91,0.00,CLR,,0.00,WeatherDisplay:10.37,2013-11-22 05:42:00,
2013-11-21 23:47:00,24.6,22.4,29.43,NW,315,19.6,19.6,91,0.00,CLR,,0.00,WeatherDisplay:10.37,2013-11-22 05:47:00,
2013-11-21 23:52:00,24.6,22.4,29.43,North,0,16.1,16.1,91,0.00,CLR,,0.00,WeatherDisplay:10.37,2013-11-22 05:52:00,
2013-11-21 23:57:00,24.6,22.4,29.44,North,0,11.5,11.5,91,0.00,CLR,,0.00,WeatherDisplay:10.37,2013-11-22 05:57:00,